KYIP/YIP METAR and TAF weather

Enter ICAO airport designator
Station Type Date Time Source
KYIP METAR 2019/05/19 20:53 UTC NOAA

KYIP 192053Z 20009KT 10SM -RA OVC080 20/ A2974 RMK AO2 SLP066 P0003 60086 T0200 50015 $


Station Type Date Time Source
KYIP Decoded METAR 2019/05/19 20:53 UTC NOAA

WILLOW RUN AIRPORT, MI, United States (KYIP) 42-14N 083-32W 215M
May 19, 2019 - 04:53 PM EDT / 2019.05.19 2053 UTC
Wind: from the SSW (200 degrees) at 10 MPH (9 KT):0
Visibility: 10 mile(s):0
Sky conditions: overcast
Weather: light rain
Precipitation last hour: 0.03 inches
Temperature: 68 F (20 C)
Pressure (altimeter): 29.74 in. Hg (1007 hPa)
Pressure tendency: 0.04 inches (1.5 hPa) higher than three hours ago
ob: KYIP 192053Z 20009KT 10SM -RA OVC080 20/ A2974 RMK AO2 SLP066 P0003 60086 T0200 50015
cycle: 21

Station Type Date Time Source
KYIP TAF 2019/05/19 20:06 UTC NOAA

TAF
AMD KYIP 192004Z 1920/2018 23017G27KT 6SM -SHRA SCT045 BKN070
TEMPO 1920/1921 3SM RA BKN040 BKN060 BKN090
FM192200 22012G20KT P6SM SCT040 BKN080
TEMPO 2001/2002 3SM TSRA SCT025 OVC035CB
FM200300 23012KT P6SM SCT035 BKN070
FM201000 26014KT P6SM OVC028
FM201600 27016G26KT P6SM OVC035

Example: see airport list